sensor_id;sensor_type;location;lat;lon;timestamp;temperature;humidity
20337;DHT22;10326;53.660;10.200;2023-02-13T00:02:11;10.70;91.30
20337;DHT22;10326;53.660;10.200;2023-02-13T00:04:38;10.70;91.30
20337;DHT22;10326;53.660;10.200;2023-02-13T00:07:07;10.60;91.30
20337;DHT22;10326;53.660;10.200;2023-02-13T00:09:38;10.60;91.30
20337;DHT22;10326;53.660;10.200;2023-02-13T00:12:07;10.60;91.30
20337;DHT22;10326;53.660;10.200;2023-02-13T00:14:36;10.60;91.30
20337;DHT22;10326;53.660;10.200;2023-02-13T00:17:05;10.60;91.40
20337;DHT22;10326;53.660;10.200;2023-02-13T00:19:32;10.60;91.40
20337;DHT22;10326;53.660;10.200;2023-02-13T00:21:59;10.60;91.40
20337;DHT22;10326;53.660;10.200;2023-02-13T00:24:26;10.60;91.30
20337;DHT22;10326;53.660;10.200;2023-02-13T00:26:55;10.60;91.30
20337;DHT22;10326;53.660;10.200;2023-02-13T00:29:22;10.60;91.30
20337;DHT22;10326;53.660;10.200;2023-02-13T00:31:50;10.60;91.30
20337;DHT22;10326;53.660;10.200;2023-02-13T00:34:17;10.60;91.40
20337;DHT22;10326;53.660;10.200;2023-02-13T00:36:45;10.60;91.30
20337;DHT22;10326;53.660;10.200;2023-02-13T00:39:13;10.60;91.30
20337;DHT22;10326;53.660;10.200;2023-02-13T00:41:40;10.60;91.30
20337;DHT22;10326;53.660;10.200;2023-02-13T00:44:09;10.60;91.30
20337;DHT22;10326;53.660;10.200;2023-02-13T00:46:37;10.60;91.30
20337;DHT22;10326;53.660;10.200;2023-02-13T00:49:04;10.50;91.30
20337;DHT22;10326;53.660;10.200;2023-02-13T00:51:33;10.60;91.40
20337;DHT22;10326;53.660;10.200;2023-02-13T00:54:01;10.60;91.40
20337;DHT22;10326;53.660;10.200;2023-02-13T00:56:28;10.60;91.30
20337;DHT22;10326;53.660;10.200;2023-02-13T00:58:55;10.60;91.30
20337;DHT22;10326;53.660;10.200;2023-02-13T01:01:25;10.60;91.40
20337;DHT22;10326;53.660;10.200;2023-02-13T01:03:52;10.60;91.30
20337;DHT22;10326;53.660;10.200;2023-02-13T01:06:20;10.60;91.30
20337;DHT22;10326;53.660;10.200;2023-02-13T01:08:47;10.50;91.30
20337;DHT22;10326;53.660;10.200;2023-02-13T01:11:14;10.50;91.30
20337;DHT22;10326;53.660;10.200;2023-02-13T01:13:43;10.50;91.30
20337;DHT22;10326;53.660;10.200;2023-02-13T01:16:11;10.50;91.30
20337;DHT22;10326;53.660;10.200;2023-02-13T01:18:41;10.50;91.30
20337;DHT22;10326;53.660;10.200;2023-02-13T01:21:15;10.40;91.30
20337;DHT22;10326;53.660;10.200;2023-02-13T01:23:44;10.40;91.30
20337;DHT22;10326;53.660;10.200;2023-02-13T01:26:16;10.40;91.40
20337;DHT22;10326;53.660;10.200;2023-02-13T01:28:44;10.40;91.40
20337;DHT22;10326;53.660;10.200;2023-02-13T01:31:12;10.40;91.40
20337;DHT22;10326;53.660;10.200;2023-02-13T01:33:41;10.40;91.40
20337;DHT22;10326;53.660;10.200;2023-02-13T01:36:10;10.40;91.40
20337;DHT22;10326;53.660;10.200;2023-02-13T01:38:39;10.40;91.40
20337;DHT22;10326;53.660;10.200;2023-02-13T01:41:07;10.40;91.40
20337;DHT22;10326;53.660;10.200;2023-02-13T01:43:50;10.40;91.40
20337;DHT22;10326;53.660;10.200;2023-02-13T01:46:23;10.40;91.40
20337;DHT22;10326;53.660;10.200;2023-02-13T01:48:59;10.40;91.50
20337;DHT22;10326;53.660;10.200;2023-02-13T01:51:31;10.40;91.50
20337;DHT22;10326;53.660;10.200;2023-02-13T01:54:02;10.40;91.50
20337;DHT22;10326;53.660;10.200;2023-02-13T01:56:35;10.40;91.40
20337;DHT22;10326;53.660;10.200;2023-02-13T01:59:07;10.40;91.40
20337;DHT22;10326;53.660;10.200;2023-02-13T02:01:37;10.40;91.30
20337;DHT22;10326;53.660;10.200;2023-02-13T02:04:09;10.40;91.40
20337;DHT22;10326;53.660;10.200;2023-02-13T02:06:42;10.40;91.40
20337;DHT22;10326;53.660;10.200;2023-02-13T02:09:14;10.40;91.40
20337;DHT22;10326;53.660;10.200;2023-02-13T02:11:49;10.40;91.40
20337;DHT22;10326;53.660;10.200;2023-02-13T02:14:19;10.40;91.40
20337;DHT22;10326;53.660;10.200;2023-02-13T02:16:46;10.40;91.40
20337;DHT22;10326;53.660;10.200;2023-02-13T02:19:25;10.40;91.40
20337;DHT22;10326;53.660;10.200;2023-02-13T02:22:37;10.40;91.40
20337;DHT22;10326;53.660;10.200;2023-02-13T02:25:55;10.40;91.40
20337;DHT22;10326;53.660;10.200;2023-02-13T02:29:07;10.40;91.30
20337;DHT22;10326;53.660;10.200;2023-02-13T02:35:08;10.40;91.30
20337;DHT22;10326;53.660;10.200;2023-02-13T02:38:01;10.40;91.30
20337;DHT22;10326;53.660;10.200;2023-02-13T02:40:42;10.40;91.30
20337;DHT22;10326;53.660;10.200;2023-02-13T02:43:23;10.40;91.30
20337;DHT22;10326;53.660;10.200;2023-02-13T02:46:00;10.40;91.30
20337;DHT22;10326;53.660;10.200;2023-02-13T02:48:42;10.40;91.30
20337;DHT22;10326;53.660;10.200;2023-02-13T02:51:39;10.30;91.30
20337;DHT22;10326;53.660;10.200;2023-02-13T02:54:15;10.40;91.30
20337;DHT22;10326;53.660;10.200;2023-02-13T02:57:09;10.40;91.30
20337;DHT22;10326;53.660;10.200;2023-02-13T02:59:42;10.40;91.20
20337;DHT22;10326;53.660;10.200;2023-02-13T03:02:29;10.40;91.30
20337;DHT22;10326;53.660;10.200;2023-02-13T03:05:20;10.40;91.20
20337;DHT22;10326;53.660;10.200;2023-02-13T03:08:06;10.40;91.10
20337;DHT22;10326;53.660;10.200;2023-02-13T03:10:36;10.40;91.10
20337;DHT22;10326;53.660;10.200;2023-02-13T03:13:36;10.30;91.10
20337;DHT22;10326;53.660;10.200;2023-02-13T03:16:05;10.30;91.00
20337;DHT22;10326;53.660;10.200;2023-02-13T03:18:52;10.30;91.10
20337;DHT22;10326;53.660;10.200;2023-02-13T03:21:46;10.30;91.00
20337;DHT22;10326;53.660;10.200;2023-02-13T03:24:40;10.30;91.00
20337;DHT22;10326;53.660;10.200;2023-02-13T03:27:19;10.20;90.90
20337;DHT22;10326;53.660;10.200;2023-02-13T03:30:11;10.20;91.00
20337;DHT22;10326;53.660;10.200;2023-02-13T03:32:53;10.20;91.00
20337;DHT22;10326;53.660;10.200;2023-02-13T03:35:33;10.20;91.00
20337;DHT22;10326;53.660;10.200;2023-02-13T03:38:27;10.20;91.00
20337;DHT22;10326;53.660;10.200;2023-02-13T03:41:02;10.20;90.90
20337;DHT22;10326;53.660;10.200;2023-02-13T03:43:58;10.20;90.90
20337;DHT22;10326;53.660;10.200;2023-02-13T03:46:34;10.20;90.90
20337;DHT22;10326;53.660;10.200;2023-02-13T03:49:05;10.20;90.90
20337;DHT22;10326;53.660;10.200;2023-02-13T03:51:55;10.20;90.90
20337;DHT22;10326;53.660;10.200;2023-02-13T03:54:31;10.20;90.80
20337;DHT22;10326;53.660;10.200;2023-02-13T03:57:19;10.20;90.80
20337;DHT22;10326;53.660;10.200;2023-02-13T04:00:12;10.20;90.70
20337;DHT22;10326;53.660;10.200;2023-02-13T04:02:50;10.10;90.70
20337;DHT22;10326;53.660;10.200;2023-02-13T04:05:23;10.10;90.50
20337;DHT22;10326;53.660;10.200;2023-02-13T04:07:51;10.10;90.60
20337;DHT22;10326;53.660;10.200;2023-02-13T04:10:21;10.10;90.60
20337;DHT22;10326;53.660;10.200;2023-02-13T04:12:56;10.10;90.50
20337;DHT22;10326;53.660;10.200;2023-02-13T04:15:33;10.10;90.50
20337;DHT22;10326;53.660;10.200;2023-02-13T04:18:06;10.00;90.50
20337;DHT22;10326;53.660;10.200;2023-02-13T04:20:37;10.00;90.40
20337;DHT22;10326;53.660;10.200;2023-02-13T04:23:06;10.00;90.30
20337;DHT22;10326;53.660;10.200;2023-02-13T04:25:38;10.00;90.30
20337;DHT22;10326;53.660;10.200;2023-02-13T04:28:07;10.00;90.30
20337;DHT22;10326;53.660;10.200;2023-02-13T04:30:34;9.90;90.20
20337;DHT22;10326;53.660;10.200;2023-02-13T04:33:01;9.90;90.10
20337;DHT22;10326;53.660;10.200;2023-02-13T04:35:29;9.90;90.10
20337;DHT22;10326;53.660;10.200;2023-02-13T04:37:56;10.00;90.20
20337;DHT22;10326;53.660;10.200;2023-02-13T04:40:23;9.90;90.10
20337;DHT22;10326;53.660;10.200;2023-02-13T04:42:51;9.90;90.10
20337;DHT22;10326;53.660;10.200;2023-02-13T04:45:18;9.90;90.10
20337;DHT22;10326;53.660;10.200;2023-02-13T04:47:49;10.00;90.10
20337;DHT22;10326;53.660;10.200;2023-02-13T04:50:17;10.00;90.00
20337;DHT22;10326;53.660;10.200;2023-02-13T04:52:44;10.00;90.00
20337;DHT22;10326;53.660;10.200;2023-02-13T04:55:12;10.00;90.00
20337;DHT22;10326;53.660;10.200;2023-02-13T04:57:39;10.00;90.00
20337;DHT22;10326;53.660;10.200;2023-02-13T05:00:08;10.00;90.00
20337;DHT22;10326;53.660;10.200;2023-02-13T05:02:36;10.00;90.00
20337;DHT22;10326;53.660;10.200;2023-02-13T05:05:04;10.00;90.00
20337;DHT22;10326;53.660;10.200;2023-02-13T05:07:31;10.00;90.00
20337;DHT22;10326;53.660;10.200;2023-02-13T05:09:59;10.00;90.00
20337;DHT22;10326;53.660;10.200;2023-02-13T05:12:28;10.10;90.00
20337;DHT22;10326;53.660;10.200;2023-02-13T05:14:55;10.00;89.90
20337;DHT22;10326;53.660;10.200;2023-02-13T05:17:24;10.10;89.90
20337;DHT22;10326;53.660;10.200;2023-02-13T05:19:51;10.10;89.70
20337;DHT22;10326;53.660;10.200;2023-02-13T05:22:18;10.10;89.80
20337;DHT22;10326;53.660;10.200;2023-02-13T05:25:03;10.10;89.70
20337;DHT22;10326;53.660;10.200;2023-02-13T05:27:30;10.10;89.70
20337;DHT22;10326;53.660;10.200;2023-02-13T05:29:57;10.10;89.80
20337;DHT22;10326;53.660;10.200;2023-02-13T05:32:26;10.10;89.80
20337;DHT22;10326;53.660;10.200;2023-02-13T05:34:53;10.10;89.80
20337;DHT22;10326;53.660;10.200;2023-02-13T05:37:20;10.10;89.90
20337;DHT22;10326;53.660;10.200;2023-02-13T05:39:47;10.10;89.80
20337;DHT22;10326;53.660;10.200;2023-02-13T05:42:14;10.10;90.00
20337;DHT22;10326;53.660;10.200;2023-02-13T05:44:41;10.10;89.60
20337;DHT22;10326;53.660;10.200;2023-02-13T05:47:08;10.10;89.70
20337;DHT22;10326;53.660;10.200;2023-02-13T05:49:37;10.10;89.70
20337;DHT22;10326;53.660;10.200;2023-02-13T05:52:04;10.10;89.60
20337;DHT22;10326;53.660;10.200;2023-02-13T05:54:31;10.10;89.70
20337;DHT22;10326;53.660;10.200;2023-02-13T05:56:58;10.20;89.70
20337;DHT22;10326;53.660;10.200;2023-02-13T05:59:25;10.20;89.80
20337;DHT22;10326;53.660;10.200;2023-02-13T06:01:52;10.20;89.70
20337;DHT22;10326;53.660;10.200;2023-02-13T06:04:19;10.20;89.70
20337;DHT22;10326;53.660;10.200;2023-02-13T06:06:48;10.20;89.70
20337;DHT22;10326;53.660;10.200;2023-02-13T06:09:15;10.20;89.60
20337;DHT22;10326;53.660;10.200;2023-02-13T06:11:42;10.20;89.70
20337;DHT22;10326;53.660;10.200;2023-02-13T06:14:10;10.20;89.70
20337;DHT22;10326;53.660;10.200;2023-02-13T06:16:38;10.20;89.60
20337;DHT22;10326;53.660;10.200;2023-02-13T06:19:06;10.20;89.60
20337;DHT22;10326;53.660;10.200;2023-02-13T06:21:33;10.20;89.60
20337;DHT22;10326;53.660;10.200;2023-02-13T06:24:04;10.20;89.60
20337;DHT22;10326;53.660;10.200;2023-02-13T06:26:31;10.20;89.40
20337;DHT22;10326;53.660;10.200;2023-02-13T06:28:59;10.20;89.40
20337;DHT22;10326;53.660;10.200;2023-02-13T06:31:26;10.20;89.40
20337;DHT22;10326;53.660;10.200;2023-02-13T06:33:53;10.20;89.50
20337;DHT22;10326;53.660;10.200;2023-02-13T06:36:21;10.20;89.40
20337;DHT22;10326;53.660;10.200;2023-02-13T06:38:48;10.20;89.30
20337;DHT22;10326;53.660;10.200;2023-02-13T06:41:17;10.20;89.20
20337;DHT22;10326;53.660;10.200;2023-02-13T06:43:44;10.20;89.20
20337;DHT22;10326;53.660;10.200;2023-02-13T06:46:11;10.20;89.20
20337;DHT22;10326;53.660;10.200;2023-02-13T06:48:38;10.20;89.10
20337;DHT22;10326;53.660;10.200;2023-02-13T06:51:06;10.20;89.00
20337;DHT22;10326;53.660;10.200;2023-02-13T06:53:33;10.20;89.00
20337;DHT22;10326;53.660;10.200;2023-02-13T06:56:03;10.20;89.10
20337;DHT22;10326;53.660;10.200;2023-02-13T06:58:32;10.20;89.20
20337;DHT22;10326;53.660;10.200;2023-02-13T07:01:00;10.20;89.20
20337;DHT22;10326;53.660;10.200;2023-02-13T07:03:27;10.20;89.30
20337;DHT22;10326;53.660;10.200;2023-02-13T07:05:54;10.20;89.40
20337;DHT22;10326;53.660;10.200;2023-02-13T07:08:21;10.20;89.40
20337;DHT22;10326;53.660;10.200;2023-02-13T07:10:49;10.20;89.40
20337;DHT22;10326;53.660;10.200;2023-02-13T07:13:16;10.20;89.30
20337;DHT22;10326;53.660;10.200;2023-02-13T07:15:44;10.20;89.10
20337;DHT22;10326;53.660;10.200;2023-02-13T07:18:11;10.20;89.10
20337;DHT22;10326;53.660;10.200;2023-02-13T07:20:39;10.20;89.10
20337;DHT22;10326;53.660;10.200;2023-02-13T07:23:06;10.20;89.00
20337;DHT22;10326;53.660;10.200;2023-02-13T07:25:33;10.20;89.50
20337;DHT22;10326;53.660;10.200;2023-02-13T07:28:01;10.20;89.50
20337;DHT22;10326;53.660;10.200;2023-02-13T07:30:29;10.20;88.80
20337;DHT22;10326;53.660;10.200;2023-02-13T07:33:01;10.20;88.80
20337;DHT22;10326;53.660;10.200;2023-02-13T07:35:30;10.10;88.70
20337;DHT22;10326;53.660;10.200;2023-02-13T07:37:57;10.10;88.80
20337;DHT22;10326;53.660;10.200;2023-02-13T07:40:25;10.10;88.80
20337;DHT22;10326;53.660;10.200;2023-02-13T07:42:53;10.10;88.70
20337;DHT22;10326;53.660;10.200;2023-02-13T07:45:20;10.10;88.80
20337;DHT22;10326;53.660;10.200;2023-02-13T07:47:47;10.10;88.60
20337;DHT22;10326;53.660;10.200;2023-02-13T07:50:16;10.10;88.50
20337;DHT22;10326;53.660;10.200;2023-02-13T07:52:44;10.10;88.40
20337;DHT22;10326;53.660;10.200;2023-02-13T07:55:18;10.10;88.60
20337;DHT22;10326;53.660;10.200;2023-02-13T07:57:46;10.10;88.50
20337;DHT22;10326;53.660;10.200;2023-02-13T08:00:14;10.10;88.50
20337;DHT22;10326;53.660;10.200;2023-02-13T08:02:42;10.10;88.50
20337;DHT22;10326;53.660;10.200;2023-02-13T08:05:09;10.10;88.60
20337;DHT22;10326;53.660;10.200;2023-02-13T08:07:38;10.10;88.70
20337;DHT22;10326;53.660;10.200;2023-02-13T08:10:07;10.10;88.70
20337;DHT22;10326;53.660;10.200;2023-02-13T08:12:54;10.20;88.80
20337;DHT22;10326;53.660;10.200;2023-02-13T08:15:21;10.20;88.90
20337;DHT22;10326;53.660;10.200;2023-02-13T08:17:48;10.20;88.80
20337;DHT22;10326;53.660;10.200;2023-02-13T08:20:16;10.20;88.70
20337;DHT22;10326;53.660;10.200;2023-02-13T08:22:44;10.20;88.60
20337;DHT22;10326;53.660;10.200;2023-02-13T08:25:12;10.20;88.60
20337;DHT22;10326;53.660;10.200;2023-02-13T08:27:39;10.20;88.70
20337;DHT22;10326;53.660;10.200;2023-02-13T08:30:08;10.20;88.70
20337;DHT22;10326;53.660;10.200;2023-02-13T08:32:36;10.20;88.70
20337;DHT22;10326;53.660;10.200;2023-02-13T08:35:03;10.20;88.70
20337;DHT22;10326;53.660;10.200;2023-02-13T08:37:31;10.20;88.80
20337;DHT22;10326;53.660;10.200;2023-02-13T08:39:59;10.30;89.50
20337;DHT22;10326;53.660;10.200;2023-02-13T08:42:27;10.30;88.80
20337;DHT22;10326;53.660;10.200;2023-02-13T08:44:55;10.30;88.80
20337;DHT22;10326;53.660;10.200;2023-02-13T08:47:22;10.30;88.50
20337;DHT22;10326;53.660;10.200;2023-02-13T08:49:49;10.30;88.50
20337;DHT22;10326;53.660;10.200;2023-02-13T08:52:18;10.30;88.50
20337;DHT22;10326;53.660;10.200;2023-02-13T08:54:45;10.30;88.40
20337;DHT22;10326;53.660;10.200;2023-02-13T08:57:13;10.30;88.50
20337;DHT22;10326;53.660;10.200;2023-02-13T08:59:41;10.30;88.20
20337;DHT22;10326;53.660;10.200;2023-02-13T09:02:09;10.30;88.30
20337;DHT22;10326;53.660;10.200;2023-02-13T09:04:36;10.30;88.30
20337;DHT22;10326;53.660;10.200;2023-02-13T09:07:03;10.30;88.50
20337;DHT22;10326;53.660;10.200;2023-02-13T09:09:31;10.30;88.40
20337;DHT22;10326;53.660;10.200;2023-02-13T09:11:58;10.30;88.20
20337;DHT22;10326;53.660;10.200;2023-02-13T09:14:26;10.30;88.30
20337;DHT22;10326;53.660;10.200;2023-02-13T09:16:54;10.30;88.20
20337;DHT22;10326;53.660;10.200;2023-02-13T09:19:21;10.30;88.20
20337;DHT22;10326;53.660;10.200;2023-02-13T09:21:48;10.30;88.20
20337;DHT22;10326;53.660;10.200;2023-02-13T09:24:15;10.30;88.00
20337;DHT22;10326;53.660;10.200;2023-02-13T09:26:42;10.30;88.00
20337;DHT22;10326;53.660;10.200;2023-02-13T09:29:10;10.30;88.10
20337;DHT22;10326;53.660;10.200;2023-02-13T09:31:38;10.30;88.20
20337;DHT22;10326;53.660;10.200;2023-02-13T09:34:05;10.30;88.10
20337;DHT22;10326;53.660;10.200;2023-02-13T09:36:33;10.40;88.10
20337;DHT22;10326;53.660;10.200;2023-02-13T09:39:01;10.40;88.00
20337;DHT22;10326;53.660;10.200;2023-02-13T09:41:31;10.40;87.90
20337;DHT22;10326;53.660;10.200;2023-02-13T09:44:03;10.40;87.90
20337;DHT22;10326;53.660;10.200;2023-02-13T09:46:35;10.40;87.90
20337;DHT22;10326;53.660;10.200;2023-02-13T09:49:07;10.40;87.80
20337;DHT22;10326;53.660;10.200;2023-02-13T09:51:37;10.40;87.90
20337;DHT22;10326;53.660;10.200;2023-02-13T09:54:06;10.40;87.90
20337;DHT22;10326;53.660;10.200;2023-02-13T09:56:46;10.40;87.80
20337;DHT22;10326;53.660;10.200;2023-02-13T09:59:36;10.40;88.30
20337;DHT22;10326;53.660;10.200;2023-02-13T10:02:32;10.40;87.70
20337;DHT22;10326;53.660;10.200;2023-02-13T10:05:17;10.40;87.70
20337;DHT22;10326;53.660;10.200;2023-02-13T10:07:57;10.40;87.50
20337;DHT22;10326;53.660;10.200;2023-02-13T10:10:36;10.40;87.60
20337;DHT22;10326;53.660;10.200;2023-02-13T10:13:21;10.50;87.70
20337;DHT22;10326;53.660;10.200;2023-02-13T10:16:01;10.50;87.20
20337;DHT22;10326;53.660;10.200;2023-02-13T10:18:42;10.50;87.10
20337;DHT22;10326;53.660;10.200;2023-02-13T10:21:15;10.40;87.20
20337;DHT22;10326;53.660;10.200;2023-02-13T10:23:50;10.40;87.20
20337;DHT22;10326;53.660;10.200;2023-02-13T10:26:23;10.40;87.00
20337;DHT22;10326;53.660;10.200;2023-02-13T10:29:11;10.40;87.20
20337;DHT22;10326;53.660;10.200;2023-02-13T10:31:55;10.40;87.20
20337;DHT22;10326;53.660;10.200;2023-02-13T10:34:27;10.40;87.20
20337;DHT22;10326;53.660;10.200;2023-02-13T10:36:59;10.40;87.10
20337;DHT22;10326;53.660;10.200;2023-02-13T10:39:28;10.40;87.80
20337;DHT22;10326;53.660;10.200;2023-02-13T10:42:05;10.40;87.30
20337;DHT22;10326;53.660;10.200;2023-02-13T10:44:46;10.40;86.90
20337;DHT22;10326;53.660;10.200;2023-02-13T10:47:31;10.40;87.00
20337;DHT22;10326;53.660;10.200;2023-02-13T10:50:18;10.40;86.60
20337;DHT22;10326;53.660;10.200;2023-02-13T10:53:00;10.50;86.60
20337;DHT22;10326;53.660;10.200;2023-02-13T10:55:54;10.50;86.40
20337;DHT22;10326;53.660;10.200;2023-02-13T10:58:50;10.50;86.10
20337;DHT22;10326;53.660;10.200;2023-02-13T11:01:34;10.40;86.10
20337;DHT22;10326;53.660;10.200;2023-02-13T11:04:10;10.40;86.50
20337;DHT22;10326;53.660;10.200;2023-02-13T11:06:42;10.40;86.90
20337;DHT22;10326;53.660;10.200;2023-02-13T11:09:11;10.40;86.80
20337;DHT22;10326;53.660;10.200;2023-02-13T11:11:40;10.40;86.90
20337;DHT22;10326;53.660;10.200;2023-02-13T11:14:10;10.40;86.60
20337;DHT22;10326;53.660;10.200;2023-02-13T11:16:50;10.40;86.50
20337;DHT22;10326;53.660;10.200;2023-02-13T11:19:28;10.50;86.50
20337;DHT22;10326;53.660;10.200;2023-02-13T11:21:59;10.50;86.40
20337;DHT22;10326;53.660;10.200;2023-02-13T11:24:31;10.50;86.30
20337;DHT22;10326;53.660;10.200;2023-02-13T11:27:01;10.50;86.30
20337;DHT22;10326;53.660;10.200;2023-02-13T11:29:35;10.50;85.90
20337;DHT22;10326;53.660;10.200;2023-02-13T11:32:08;10.50;86.10
20337;DHT22;10326;53.660;10.200;2023-02-13T11:34:44;10.50;86.40
20337;DHT22;10326;53.660;10.200;2023-02-13T11:37:18;10.50;86.30
20337;DHT22;10326;53.660;10.200;2023-02-13T11:39:50;10.50;86.00
20337;DHT22;10326;53.660;10.200;2023-02-13T11:42:30;10.50;86.00
20337;DHT22;10326;53.660;10.200;2023-02-13T11:45:00;10.50;85.50
20337;DHT22;10326;53.660;10.200;2023-02-13T11:47:32;10.60;86.00
20337;DHT22;10326;53.660;10.200;2023-02-13T11:50:01;10.60;85.80
20337;DHT22;10326;53.660;10.200;2023-02-13T11:52:31;10.60;85.90
20337;DHT22;10326;53.660;10.200;2023-02-13T11:55:04;10.60;85.70
20337;DHT22;10326;53.660;10.200;2023-02-13T11:57:56;10.60;85.50
20337;DHT22;10326;53.660;10.200;2023-02-13T12:00:26;10.60;85.50
20337;DHT22;10326;53.660;10.200;2023-02-13T12:02:57;10.60;85.90
20337;DHT22;10326;53.660;10.200;2023-02-13T12:05:25;10.60;86.10
20337;DHT22;10326;53.660;10.200;2023-02-13T12:07:57;10.60;86.20
20337;DHT22;10326;53.660;10.200;2023-02-13T12:10:28;10.70;86.10
20337;DHT22;10326;53.660;10.200;2023-02-13T12:13:01;10.70;85.80
20337;DHT22;10326;53.660;10.200;2023-02-13T12:15:35;10.70;85.80
20337;DHT22;10326;53.660;10.200;2023-02-13T12:18:09;10.70;85.50
20337;DHT22;10326;53.660;10.200;2023-02-13T12:20:56;10.70;85.40
20337;DHT22;10326;53.660;10.200;2023-02-13T12:23:34;10.70;85.20
20337;DHT22;10326;53.660;10.200;2023-02-13T12:26:17;10.70;85.20
20337;DHT22;10326;53.660;10.200;2023-02-13T12:29:04;10.70;85.10
20337;DHT22;10326;53.660;10.200;2023-02-13T12:31:58;10.70;85.00
20337;DHT22;10326;53.660;10.200;2023-02-13T12:35:15;10.70;85.10
20337;DHT22;10326;53.660;10.200;2023-02-13T12:38:02;10.70;84.80
20337;DHT22;10326;53.660;10.200;2023-02-13T12:40:41;10.80;85.20
20337;DHT22;10326;53.660;10.200;2023-02-13T12:43:46;10.70;84.70
20337;DHT22;10326;53.660;10.200;2023-02-13T12:46:37;10.70;84.40
20337;DHT22;10326;53.660;10.200;2023-02-13T12:49:17;10.70;85.10
20337;DHT22;10326;53.660;10.200;2023-02-13T12:52:13;10.70;85.20
20337;DHT22;10326;53.660;10.200;2023-02-13T12:54:54;10.70;84.50
20337;DHT22;10326;53.660;10.200;2023-02-13T12:57:44;10.70;85.00
20337;DHT22;10326;53.660;10.200;2023-02-13T13:00:33;10.70;85.10
20337;DHT22;10326;53.660;10.200;2023-02-13T13:03:18;10.70;84.90
20337;DHT22;10326;53.660;10.200;2023-02-13T13:06:09;10.70;85.10
20337;DHT22;10326;53.660;10.200;2023-02-13T13:08:59;10.70;84.50
20337;DHT22;10326;53.660;10.200;2023-02-13T13:11:56;10.70;84.70
20337;DHT22;10326;53.660;10.200;2023-02-13T13:14:44;10.70;84.60
20337;DHT22;10326;53.660;10.200;2023-02-13T13:17:29;10.70;84.70
20337;DHT22;10326;53.660;10.200;2023-02-13T13:20:26;10.70;84.70
20337;DHT22;10326;53.660;10.200;2023-02-13T13:23:18;10.70;85.10
20337;DHT22;10326;53.660;10.200;2023-02-13T13:25:54;10.70;85.20
20337;DHT22;10326;53.660;10.200;2023-02-13T13:28:28;10.70;84.90
20337;DHT22;10326;53.660;10.200;2023-02-13T13:30:59;10.70;85.10
20337;DHT22;10326;53.660;10.200;2023-02-13T13:33:30;10.70;85.20
20337;DHT22;10326;53.660;10.200;2023-02-13T13:36:03;10.70;85.20
20337;DHT22;10326;53.660;10.200;2023-02-13T13:38:44;10.70;85.20
20337;DHT22;10326;53.660;10.200;2023-02-13T13:41:22;10.70;85.20
20337;DHT22;10326;53.660;10.200;2023-02-13T13:44:03;10.70;85.10
20337;DHT22;10326;53.660;10.200;2023-02-13T13:46:47;10.70;84.90
20337;DHT22;10326;53.660;10.200;2023-02-13T13:49:39;10.80;84.80
20337;DHT22;10326;53.660;10.200;2023-02-13T13:52:20;10.80;84.50
20337;DHT22;10326;53.660;10.200;2023-02-13T13:54:50;10.70;84.60
20337;DHT22;10326;53.660;10.200;2023-02-13T13:57:19;10.80;84.90
20337;DHT22;10326;53.660;10.200;2023-02-13T14:06:08;10.80;84.20
20337;DHT22;10326;53.660;10.200;2023-02-13T14:09:08;10.80;84.50
20337;DHT22;10326;53.660;10.200;2023-02-13T14:12:35;10.80;84.40
20337;DHT22;10326;53.660;10.200;2023-02-13T14:15:04;10.80;84.00
20337;DHT22;10326;53.660;10.200;2023-02-13T14:17:55;10.70;84.60
20337;DHT22;10326;53.660;10.200;2023-02-13T14:20:35;10.70;84.50
20337;DHT22;10326;53.660;10.200;2023-02-13T14:23:17;10.70;84.50
20337;DHT22;10326;53.660;10.200;2023-02-13T14:26:17;10.70;84.40
20337;DHT22;10326;53.660;10.200;2023-02-13T14:28:57;10.70;83.70
20337;DHT22;10326;53.660;10.200;2023-02-13T14:31:30;10.70;83.80
20337;DHT22;10326;53.660;10.200;2023-02-13T14:33:59;10.70;84.20
20337;DHT22;10326;53.660;10.200;2023-02-13T14:36:29;10.70;84.10
20337;DHT22;10326;53.660;10.200;2023-02-13T14:39:00;10.70;84.20
20337;DHT22;10326;53.660;10.200;2023-02-13T14:41:55;10.70;83.90
20337;DHT22;10326;53.660;10.200;2023-02-13T14:44:27;10.70;83.40
20337;DHT22;10326;53.660;10.200;2023-02-13T14:46:59;10.70;83.80
20337;DHT22;10326;53.660;10.200;2023-02-13T14:49:32;10.60;83.80
20337;DHT22;10326;53.660;10.200;2023-02-13T14:52:03;10.60;83.50
20337;DHT22;10326;53.660;10.200;2023-02-13T14:54:35;10.60;83.60
20337;DHT22;10326;53.660;10.200;2023-02-13T14:57:11;10.60;83.70
20337;DHT22;10326;53.660;10.200;2023-02-13T14:59:45;10.50;83.30
20337;DHT22;10326;53.660;10.200;2023-02-13T15:02:21;10.50;83.60
20337;DHT22;10326;53.660;10.200;2023-02-13T15:04:54;10.50;83.40
20337;DHT22;10326;53.660;10.200;2023-02-13T15:07:26;10.50;83.40
20337;DHT22;10326;53.660;10.200;2023-02-13T15:09:58;10.50;83.50
20337;DHT22;10326;53.660;10.200;2023-02-13T15:12:30;10.50;83.50
20337;DHT22;10326;53.660;10.200;2023-02-13T15:14:58;10.50;83.40
20337;DHT22;10326;53.660;10.200;2023-02-13T15:17:29;10.50;83.40
20337;DHT22;10326;53.660;10.200;2023-02-13T15:20:07;10.50;83.30
20337;DHT22;10326;53.660;10.200;2023-02-13T15:22:45;10.50;83.10
20337;DHT22;10326;53.660;10.200;2023-02-13T15:25:21;10.50;83.30
20337;DHT22;10326;53.660;10.200;2023-02-13T15:27:53;10.40;82.70
20337;DHT22;10326;53.660;10.200;2023-02-13T15:30:23;10.40;83.60
20337;DHT22;10326;53.660;10.200;2023-02-13T15:32:55;10.40;82.80
20337;DHT22;10326;53.660;10.200;2023-02-13T15:35:26;10.40;82.80
20337;DHT22;10326;53.660;10.200;2023-02-13T15:37:56;10.30;82.70
20337;DHT22;10326;53.660;10.200;2023-02-13T15:40:26;10.30;82.90
20337;DHT22;10326;53.660;10.200;2023-02-13T15:42:56;10.30;83.00
20337;DHT22;10326;53.660;10.200;2023-02-13T15:45:26;10.20;82.90
20337;DHT22;10326;53.660;10.200;2023-02-13T15:47:54;10.20;83.10
20337;DHT22;10326;53.660;10.200;2023-02-13T15:50:27;10.20;83.30
20337;DHT22;10326;53.660;10.200;2023-02-13T15:52:57;10.20;83.00
20337;DHT22;10326;53.660;10.200;2023-02-13T15:55:28;10.20;83.00
20337;DHT22;10326;53.660;10.200;2023-02-13T15:57:59;10.20;82.90
20337;DHT22;10326;53.660;10.200;2023-02-13T16:00:29;10.20;83.00
20337;DHT22;10326;53.660;10.200;2023-02-13T16:02:58;10.20;82.90
20337;DHT22;10326;53.660;10.200;2023-02-13T16:05:27;10.20;83.00
20337;DHT22;10326;53.660;10.200;2023-02-13T16:07:58;10.20;83.10
20337;DHT22;10326;53.660;10.200;2023-02-13T16:10:27;10.10;82.80